Bendena, Kansas
Current Conditions -  °F | °C
As of 10:13 AM on Monday 22 Dec 2014 (Local Time) from KSTJ Reporting Station
Moderate Rain Moderate Rain  
Wind Chill: 37°   Ceiling: 500
Heat Index: 42°   Visibility: 2.5mi
Dew Point: 41°   Wind: 9mph
Humidity: 96%   Direction: 160°SSE
Pressure: 29.56"   Gusts: NA
Location:  39.74°N, 95.18°W
Report Text: KSTJ 221613Z 16008KT 2 1/2SM RA BR OVC005 06/05 A2956 RMK AO2 P0003 T00560050
Loading
Personal Weather Stations






























Interactive Weather Map New forecast layout! Learn more

10-Day Weather Forecast

Advertisements
Track Severe Weather on mobile